leichi00

Alter:
Land: Österreich
Schnopser seit: 09.03.2014
Fairness Rating: 100%
Gespielte Bummerl: 702
Davon gewonnen: 222
Siegesrate: 32%
ELO: 645

Turnierteilnahmen

Bisher noch kein Turnier gespielt


Die letzten 25 gespielten Bummerl

Zeit Gegner Ergebnis Ende Credits Elo
15:33:58 am 09.11.2017 Gaby 0:7 normal - 645 (-8)
15:30:55 am 09.11.2017 Speedy 1:7 normal - 653 (-7)
13:12:54 am 18.08.2017 JW 2:8 normal - 660 (-5)
19:28:45 am 09.08.2017 Günter 2:7 normal - 665 (-6)
19:24:35 am 09.08.2017 Andreas1985 3:7 normal - 671 (-7)
19:19:14 am 09.08.2017 Malta 6:7 normal - 678 (-5)
19:14:45 am 09.08.2017 obstler 3:8 normal - 683 (-5)
19:09:54 am 09.08.2017 Hr. Werner 2:7 normal - 688 (-4)
21:01:21 am 08.08.2017 haide88 1:7 normal - 692 (-8)
20:55:34 am 08.08.2017 Spindi 3:7 normal - 700 (-4)
20:48:14 am 08.08.2017 anzapft is 8:4 normal - 704 (15)
20:42:50 am 08.08.2017 Biene 7:4 normal - 689 (13)
20:36:20 am 08.08.2017 Bummerle 1:7 normal - 676 (-5)
20:33:46 am 08.08.2017 HTC Desire 626G dual... 2:8 normal - 681 (-5)
21:34:37 am 06.08.2017 daisy007 0:7 normal - 686 (-8)
12:27:21 am 06.08.2017 Aers 5:7 normal - 694 (-5)
12:17:55 am 06.08.2017 adi 5:7 normal - 699 (-9)
09:57:25 am 06.08.2017 Lisas iPhone 2:7 normal - 708 (-8)
09:51:17 am 06.08.2017 Stmk72 7:5 normal - 716 (15)
15:51:48 am 05.08.2017 daniel 3:7 normal - 701 (-9)
13:20:02 am 05.08.2017 kc87 8:3 normal - 710 (13)
13:14:47 am 05.08.2017 Wexi 4:7 normal - 697 (-5)
13:09:36 am 05.08.2017 Bergzigeuner♠️♦️ 7:6 normal - 702 (13)
13:04:25 am 05.08.2017 Maximilian Kingster 4:7 normal - 689 (-4)
12:59:24 am 05.08.2017 waltero14 7:4 normal - 693 (16)